sensor_id;sensor_type;location;lat;lon;timestamp;pressure;altitude;pressure_sealevel;temperature;humidity
11712;BME280;5912;51.034;6.984;2023-02-28T00:00:21;56761.00;;;-142.13;52.46
11712;BME280;5912;51.034;6.984;2023-02-28T00:02:47;56728.94;;;-142.13;51.76
11712;BME280;5912;51.034;6.984;2023-02-28T00:05:15;56752.97;;;-142.13;52.34
11712;BME280;5912;51.034;6.984;2023-02-28T00:07:41;56738.97;;;-142.13;51.96
11712;BME280;5912;51.034;6.984;2023-02-28T00:10:12;56754.97;;;-142.13;52.33
11712;BME280;5912;51.034;6.984;2023-02-28T00:12:38;56728.94;;;-142.13;52.78
11712;BME280;5912;51.034;6.984;2023-02-28T00:15:08;56744.97;;;-142.13;52.82
11712;BME280;5912;51.034;6.984;2023-02-28T00:17:34;56720.94;;;-142.13;52.31
11712;BME280;5912;51.034;6.984;2023-02-28T00:19:59;56728.94;;;-142.13;53.32
11712;BME280;5912;51.034;6.984;2023-02-28T00:22:41;56757.00;;;-142.13;52.84
11712;BME280;5912;51.034;6.984;2023-02-28T00:25:08;56724.94;;;-142.13;53.34
11712;BME280;5912;51.034;6.984;2023-02-28T00:27:35;56738.97;;;-142.13;53.70
11712;BME280;5912;51.034;6.984;2023-02-28T00:30:01;56700.91;;;-142.13;53.80
11712;BME280;5912;51.034;6.984;2023-02-28T00:32:27;56738.97;;;-142.13;54.75
11712;BME280;5912;51.034;6.984;2023-02-28T00:34:52;56718.91;;;-142.13;54.27
11712;BME280;5912;51.034;6.984;2023-02-28T00:37:17;56728.94;;;-142.13;54.77
11712;BME280;5912;51.034;6.984;2023-02-28T00:39:42;56720.94;;;-142.13;54.25
11712;BME280;5912;51.034;6.984;2023-02-28T00:42:08;56740.97;;;-142.13;54.06
11712;BME280;5912;51.034;6.984;2023-02-28T00:44:33;56750.97;;;-142.13;54.03
11712;BME280;5912;51.034;6.984;2023-02-28T00:47:00;56777.03;;;-142.13;53.82
11712;BME280;5912;51.034;6.984;2023-02-28T00:49:26;56740.97;;;-142.13;53.66
11712;BME280;5912;51.034;6.984;2023-02-28T00:51:52;56754.97;;;-142.13;53.44
11712;BME280;5912;51.034;6.984;2023-02-28T00:54:18;56716.91;;;-142.13;53.28
11712;BME280;5912;51.034;6.984;2023-02-28T00:56:43;56757.00;;;-142.13;53.34
11712;BME280;5912;51.034;6.984;2023-02-28T00:59:11;56716.91;;;-142.13;53.50
11712;BME280;5912;51.034;6.984;2023-02-28T01:01:36;56746.97;;;-142.13;53.31
11712;BME280;5912;51.034;6.984;2023-02-28T01:04:01;56742.97;;;-142.13;53.09
11712;BME280;5912;51.034;6.984;2023-02-28T01:06:28;56748.97;;;-142.13;53.72
11712;BME280;5912;51.034;6.984;2023-02-28T01:08:53;56728.94;;;-142.13;54.26
11712;BME280;5912;51.034;6.984;2023-02-28T01:11:18;56765.00;;;-142.13;53.77
11712;BME280;5912;51.034;6.984;2023-02-28T01:13:45;56738.97;;;-142.13;53.62
11712;BME280;5912;51.034;6.984;2023-02-28T01:16:10;56754.97;;;-142.13;53.83
11712;BME280;5912;51.034;6.984;2023-02-28T01:18:37;56714.91;;;-142.13;53.80
11712;BME280;5912;51.034;6.984;2023-02-28T01:21:14;56736.94;;;-142.13;54.33
11712;BME280;5912;51.034;6.984;2023-02-28T01:23:40;56736.94;;;-142.13;54.37
11712;BME280;5912;51.034;6.984;2023-02-28T01:26:06;56736.94;;;-142.13;54.46
11712;BME280;5912;51.034;6.984;2023-02-28T01:28:32;56759.00;;;-142.13;54.30
11712;BME280;5912;51.034;6.984;2023-02-28T01:30:57;56730.94;;;-142.13;54.61
11712;BME280;5912;51.034;6.984;2023-02-28T01:33:23;56716.91;;;-142.13;53.74
11712;BME280;5912;51.034;6.984;2023-02-28T01:35:48;56740.97;;;-142.13;53.74
11712;BME280;5912;51.034;6.984;2023-02-28T01:38:14;56716.91;;;-142.13;54.06
11712;BME280;5912;51.034;6.984;2023-02-28T01:40:40;56752.97;;;-142.13;54.37
11712;BME280;5912;51.034;6.984;2023-02-28T01:43:26;56748.97;;;-142.13;54.21
11712;BME280;5912;51.034;6.984;2023-02-28T01:45:57;56736.94;;;-142.13;54.33
11712;BME280;5912;51.034;6.984;2023-02-28T01:48:32;56752.97;;;-142.13;54.16
11712;BME280;5912;51.034;6.984;2023-02-28T01:51:06;56740.97;;;-142.13;54.33
11712;BME280;5912;51.034;6.984;2023-02-28T01:53:38;56763.00;;;-142.13;53.39
11712;BME280;5912;51.034;6.984;2023-02-28T01:56:06;56748.97;;;-142.13;53.87
11712;BME280;5912;51.034;6.984;2023-02-28T01:58:33;56752.97;;;-142.13;53.49
11712;BME280;5912;51.034;6.984;2023-02-28T02:00:59;56746.97;;;-142.13;53.12
11712;BME280;5912;51.034;6.984;2023-02-28T02:03:24;56736.94;;;-142.13;53.31
11712;BME280;5912;51.034;6.984;2023-02-28T02:05:50;56712.91;;;-142.13;53.85
11712;BME280;5912;51.034;6.984;2023-02-28T02:08:23;56734.94;;;-142.13;53.83
11712;BME280;5912;51.034;6.984;2023-02-28T02:10:53;56740.97;;;-142.13;53.58
11712;BME280;5912;51.034;6.984;2023-02-28T02:24:42;56754.97;;;-142.13;54.27
11712;BME280;5912;51.034;6.984;2023-02-28T02:37:58;56740.97;;;-142.13;51.44
11712;BME280;5912;51.034;6.984;2023-02-28T02:43:29;56716.91;;;-142.13;51.08
11712;BME280;5912;51.034;6.984;2023-02-28T02:46:15;56718.91;;;-142.13;50.85
11712;BME280;5912;51.034;6.984;2023-02-28T02:48:43;56736.94;;;-142.13;51.47
11712;BME280;5912;51.034;6.984;2023-02-28T02:51:14;56736.94;;;-142.13;51.56
11712;BME280;5912;51.034;6.984;2023-02-28T02:53:49;56757.00;;;-142.13;51.75
11712;BME280;5912;51.034;6.984;2023-02-28T02:56:21;56724.94;;;-142.13;51.84
11712;BME280;5912;51.034;6.984;2023-02-28T02:58:49;56757.00;;;-142.13;52.56
11712;BME280;5912;51.034;6.984;2023-02-28T03:01:20;56728.94;;;-142.13;53.04
11712;BME280;5912;51.034;6.984;2023-02-28T03:03:57;56757.00;;;-142.13;53.13
11712;BME280;5912;51.034;6.984;2023-02-28T03:06:25;56748.97;;;-142.13;53.68
11712;BME280;5912;51.034;6.984;2023-02-28T03:08:50;56765.00;;;-142.13;54.04
11712;BME280;5912;51.034;6.984;2023-02-28T03:11:16;56740.97;;;-142.13;54.82
11712;BME280;5912;51.034;6.984;2023-02-28T03:14:09;56773.00;;;-142.13;54.48
11712;BME280;5912;51.034;6.984;2023-02-28T03:16:54;56781.03;;;-142.13;55.02
11712;BME280;5912;51.034;6.984;2023-02-28T03:19:38;56738.97;;;-142.13;55.01
11712;BME280;5912;51.034;6.984;2023-02-28T03:25:22;56763.00;;;-142.13;55.56
11712;BME280;5912;51.034;6.984;2023-02-28T03:27:59;56789.03;;;-142.13;55.98
11712;BME280;5912;51.034;6.984;2023-02-28T03:30:36;56773.00;;;-142.13;55.78
11712;BME280;5912;51.034;6.984;2023-02-28T03:33:14;56744.97;;;-142.13;55.94
11712;BME280;5912;51.034;6.984;2023-02-28T03:35:50;56775.03;;;-142.13;56.36
11712;BME280;5912;51.034;6.984;2023-02-28T03:40:57;56767.00;;;-142.13;56.86
11712;BME280;5912;51.034;6.984;2023-02-28T03:43:29;56744.97;;;-142.13;56.99
11712;BME280;5912;51.034;6.984;2023-02-28T03:45:57;56759.00;;;-142.13;57.16
11712;BME280;5912;51.034;6.984;2023-02-28T03:48:36;56750.97;;;-142.13;57.41
11712;BME280;5912;51.034;6.984;2023-02-28T03:51:06;56793.06;;;-142.13;57.40
11712;BME280;5912;51.034;6.984;2023-02-28T03:53:37;56752.97;;;-142.13;57.73
11712;BME280;5912;51.034;6.984;2023-02-28T03:56:19;56752.97;;;-142.13;57.95
11712;BME280;5912;51.034;6.984;2023-02-28T04:01:31;56823.09;;;-142.13;58.54
11712;BME280;5912;51.034;6.984;2023-02-28T04:03:58;56754.97;;;-142.13;58.42
11712;BME280;5912;51.034;6.984;2023-02-28T04:06:24;56748.97;;;-142.13;58.66
11712;BME280;5912;51.034;6.984;2023-02-28T04:08:50;56785.03;;;-142.13;58.59
11712;BME280;5912;51.034;6.984;2023-02-28T04:14:04;56752.97;;;-142.13;58.71
11712;BME280;5912;51.034;6.984;2023-02-28T04:16:31;56765.00;;;-142.13;58.83
11712;BME280;5912;51.034;6.984;2023-02-28T04:18:57;56748.97;;;-142.13;58.76
11712;BME280;5912;51.034;6.984;2023-02-28T04:21:37;56785.03;;;-142.13;58.19
11712;BME280;5912;51.034;6.984;2023-02-28T04:24:07;56785.03;;;-142.13;57.60
11712;BME280;5912;51.034;6.984;2023-02-28T04:26:34;56759.00;;;-142.13;57.17
11712;BME280;5912;51.034;6.984;2023-02-28T04:29:01;56769.00;;;-142.13;56.36
11712;BME280;5912;51.034;6.984;2023-02-28T04:31:26;56744.97;;;-142.13;56.03
11712;BME280;5912;51.034;6.984;2023-02-28T04:33:52;56724.94;;;-142.13;55.62
11712;BME280;5912;51.034;6.984;2023-02-28T04:36:18;56761.00;;;-142.13;55.63
11712;BME280;5912;51.034;6.984;2023-02-28T04:38:45;56730.94;;;-142.13;55.44
11712;BME280;5912;51.034;6.984;2023-02-28T04:41:12;56793.06;;;-142.13;54.81
11712;BME280;5912;51.034;6.984;2023-02-28T04:43:37;56757.00;;;-142.13;54.42
11712;BME280;5912;51.034;6.984;2023-02-28T04:46:04;56736.94;;;-142.13;54.26
11712;BME280;5912;51.034;6.984;2023-02-28T04:48:31;56761.00;;;-142.13;53.32
11712;BME280;5912;51.034;6.984;2023-02-28T04:51:04;56752.97;;;-142.13;53.13
11712;BME280;5912;51.034;6.984;2023-02-28T04:53:30;56865.16;;;-142.13;53.00
11712;BME280;5912;51.034;6.984;2023-02-28T04:55:57;56742.97;;;-142.13;52.39
11712;BME280;5912;51.034;6.984;2023-02-28T04:58:22;56757.00;;;-142.13;52.44
11712;BME280;5912;51.034;6.984;2023-02-28T05:00:51;56748.97;;;-142.13;52.20
11712;BME280;5912;51.034;6.984;2023-02-28T05:03:17;56728.94;;;-142.13;52.22
11712;BME280;5912;51.034;6.984;2023-02-28T05:05:42;56757.00;;;-142.13;52.32
11712;BME280;5912;51.034;6.984;2023-02-28T05:08:07;56736.94;;;-142.13;51.63
11712;BME280;5912;51.034;6.984;2023-02-28T05:10:34;56744.97;;;-142.13;52.11
11712;BME280;5912;51.034;6.984;2023-02-28T05:13:00;56923.28;;;-142.13;51.63
11712;BME280;5912;51.034;6.984;2023-02-28T05:15:25;56750.97;;;-142.13;51.22
11712;BME280;5912;51.034;6.984;2023-02-28T05:17:53;56765.00;;;-142.13;51.56
11712;BME280;5912;51.034;6.984;2023-02-28T05:20:19;56748.97;;;-142.13;51.89
11712;BME280;5912;51.034;6.984;2023-02-28T05:22:46;56736.94;;;-142.13;51.67
11712;BME280;5912;51.034;6.984;2023-02-28T05:25:15;56757.00;;;-142.13;51.74
11712;BME280;5912;51.034;6.984;2023-02-28T05:27:41;56748.97;;;-142.13;51.47
11712;BME280;5912;51.034;6.984;2023-02-28T05:30:07;56765.00;;;-142.13;52.01
11712;BME280;5912;51.034;6.984;2023-02-28T05:32:39;56712.91;;;-142.13;51.29
11712;BME280;5912;51.034;6.984;2023-02-28T05:35:08;56738.97;;;-142.13;51.33
11712;BME280;5912;51.034;6.984;2023-02-28T05:37:33;56740.97;;;-142.13;51.65
11712;BME280;5912;51.034;6.984;2023-02-28T05:39:58;56752.97;;;-142.13;51.20
11712;BME280;5912;51.034;6.984;2023-02-28T05:42:24;56769.00;;;-142.13;51.33
11712;BME280;5912;51.034;6.984;2023-02-28T05:44:49;56738.97;;;-142.13;50.56
11712;BME280;5912;51.034;6.984;2023-02-28T05:47:15;56752.97;;;-142.13;50.87
11712;BME280;5912;51.034;6.984;2023-02-28T05:49:41;56744.97;;;-142.13;50.42
11712;BME280;5912;51.034;6.984;2023-02-28T05:52:07;56736.94;;;-142.13;50.11
11712;BME280;5912;51.034;6.984;2023-02-28T05:54:33;56728.94;;;-142.13;49.99
11712;BME280;5912;51.034;6.984;2023-02-28T05:56:58;56738.97;;;-142.13;49.67
11712;BME280;5912;51.034;6.984;2023-02-28T05:59:23;56704.91;;;-142.13;49.21
11712;BME280;5912;51.034;6.984;2023-02-28T06:01:49;56748.97;;;-142.13;49.13
11712;BME280;5912;51.034;6.984;2023-02-28T06:04:17;56736.94;;;-142.13;49.08
11712;BME280;5912;51.034;6.984;2023-02-28T06:06:45;56761.00;;;-142.13;49.22
11712;BME280;5912;51.034;6.984;2023-02-28T06:09:11;56752.97;;;-142.13;48.81
11712;BME280;5912;51.034;6.984;2023-02-28T06:11:37;56716.91;;;-142.13;48.57
11712;BME280;5912;51.034;6.984;2023-02-28T06:14:03;56752.97;;;-142.13;48.81
11712;BME280;5912;51.034;6.984;2023-02-28T06:16:30;56728.94;;;-142.13;49.18
11712;BME280;5912;51.034;6.984;2023-02-28T06:19:00;56748.97;;;-142.13;49.09
11712;BME280;5912;51.034;6.984;2023-02-28T06:21:26;56754.97;;;-142.13;49.26
11712;BME280;5912;51.034;6.984;2023-02-28T06:23:53;56757.00;;;-142.13;49.09
11712;BME280;5912;51.034;6.984;2023-02-28T06:26:19;56761.00;;;-142.13;49.33
11712;BME280;5912;51.034;6.984;2023-02-28T06:28:44;56765.00;;;-142.13;49.41
11712;BME280;5912;51.034;6.984;2023-02-28T06:31:12;56785.03;;;-142.13;49.18
11712;BME280;5912;51.034;6.984;2023-02-28T06:33:39;56752.97;;;-142.13;49.12
11712;BME280;5912;51.034;6.984;2023-02-28T06:36:05;56716.91;;;-142.13;48.88
11712;BME280;5912;51.034;6.984;2023-02-28T06:38:32;56761.00;;;-142.13;49.28
11712;BME280;5912;51.034;6.984;2023-02-28T06:40:59;56763.00;;;-142.13;48.95
11712;BME280;5912;51.034;6.984;2023-02-28T06:43:27;56740.97;;;-142.13;48.56
11712;BME280;5912;51.034;6.984;2023-02-28T06:45:57;56728.94;;;-142.13;48.28
11712;BME280;5912;51.034;6.984;2023-02-28T06:48:23;56761.00;;;-142.13;48.31
11712;BME280;5912;51.034;6.984;2023-02-28T06:50:49;56718.91;;;-142.13;47.97
11712;BME280;5912;51.034;6.984;2023-02-28T06:53:14;56728.94;;;-142.13;47.42
11712;BME280;5912;51.034;6.984;2023-02-28T06:55:40;56759.00;;;-142.13;48.01
11712;BME280;5912;51.034;6.984;2023-02-28T06:58:06;56724.94;;;-142.13;47.32
11712;BME280;5912;51.034;6.984;2023-02-28T07:00:41;56744.97;;;-142.13;47.28
11712;BME280;5912;51.034;6.984;2023-02-28T07:03:06;56765.00;;;-142.13;47.16
11712;BME280;5912;51.034;6.984;2023-02-28T07:05:31;56732.94;;;-142.13;47.01
11712;BME280;5912;51.034;6.984;2023-02-28T07:07:57;56720.94;;;-142.13;46.01
11712;BME280;5912;51.034;6.984;2023-02-28T07:10:22;56722.94;;;-142.13;45.96
11712;BME280;5912;51.034;6.984;2023-02-28T07:12:47;56712.91;;;-142.13;45.75
11712;BME280;5912;51.034;6.984;2023-02-28T07:15:12;56730.94;;;-142.13;45.19
11712;BME280;5912;51.034;6.984;2023-02-28T07:17:38;56748.97;;;-142.13;45.29
11712;BME280;5912;51.034;6.984;2023-02-28T07:20:03;56732.94;;;-142.13;44.52
11712;BME280;5912;51.034;6.984;2023-02-28T07:22:29;56720.94;;;-142.13;44.04
11712;BME280;5912;51.034;6.984;2023-02-28T07:24:55;56734.94;;;-142.13;44.42
11712;BME280;5912;51.034;6.984;2023-02-28T07:27:20;56694.88;;;-142.13;44.25
11712;BME280;5912;51.034;6.984;2023-02-28T07:29:49;56714.91;;;-142.13;44.00
11712;BME280;5912;51.034;6.984;2023-02-28T07:32:15;56698.88;;;-142.13;42.89
11712;BME280;5912;51.034;6.984;2023-02-28T07:34:40;56720.94;;;-142.13;42.08
11712;BME280;5912;51.034;6.984;2023-02-28T07:37:05;56680.84;;;-142.13;41.63
11712;BME280;5912;51.034;6.984;2023-02-28T07:39:46;56656.81;;;-142.13;41.31
11712;BME280;5912;51.034;6.984;2023-02-28T07:42:11;56676.84;;;-142.13;41.42
11712;BME280;5912;51.034;6.984;2023-02-28T07:44:40;56676.84;;;-142.13;40.87
11712;BME280;5912;51.034;6.984;2023-02-28T07:47:09;56698.88;;;-142.13;39.98
11712;BME280;5912;51.034;6.984;2023-02-28T07:49:38;56696.88;;;-142.13;40.23
11712;BME280;5912;51.034;6.984;2023-02-28T07:52:05;56666.84;;;-142.13;40.14
11712;BME280;5912;51.034;6.984;2023-02-28T07:54:31;56694.88;;;-142.13;39.25
11712;BME280;5912;51.034;6.984;2023-02-28T07:56:56;56682.88;;;-142.13;39.03
11712;BME280;5912;51.034;6.984;2023-02-28T07:59:21;56682.88;;;-142.13;38.59
11712;BME280;5912;51.034;6.984;2023-02-28T08:01:47;56708.91;;;-142.13;38.51
11712;BME280;5912;51.034;6.984;2023-02-28T08:04:15;56694.88;;;-142.13;38.51
11712;BME280;5912;51.034;6.984;2023-02-28T08:06:41;56676.84;;;-142.13;38.38
11712;BME280;5912;51.034;6.984;2023-02-28T08:09:06;56648.81;;;-142.13;38.10
11712;BME280;5912;51.034;6.984;2023-02-28T08:11:32;56678.84;;;-142.13;37.77
11712;BME280;5912;51.034;6.984;2023-02-28T08:13:58;56660.81;;;-142.13;37.04
11712;BME280;5912;51.034;6.984;2023-02-28T08:16:23;56622.75;;;-142.13;36.78
11712;BME280;5912;51.034;6.984;2023-02-28T08:18:50;56622.75;;;-142.13;36.14
11712;BME280;5912;51.034;6.984;2023-02-28T08:21:17;56632.78;;;-142.13;35.75
11712;BME280;5912;51.034;6.984;2023-02-28T08:23:42;56628.78;;;-142.13;34.96
11712;BME280;5912;51.034;6.984;2023-02-28T08:26:08;56610.75;;;-142.13;34.56
11712;BME280;5912;51.034;6.984;2023-02-28T08:28:33;56592.72;;;-142.13;34.16
11712;BME280;5912;51.034;6.984;2023-02-28T08:30:59;56594.72;;;-142.13;33.58
11712;BME280;5912;51.034;6.984;2023-02-28T08:33:25;56598.72;;;-142.13;32.63
11712;BME280;5912;51.034;6.984;2023-02-28T08:35:55;56574.69;;;-142.13;32.59
11712;BME280;5912;51.034;6.984;2023-02-28T08:38:21;56604.72;;;-142.13;32.44
11712;BME280;5912;51.034;6.984;2023-02-28T08:40:47;56584.69;;;-142.13;32.38
11712;BME280;5912;51.034;6.984;2023-02-28T08:43:12;56592.72;;;-142.13;31.54
11712;BME280;5912;51.034;6.984;2023-02-28T08:45:38;56576.69;;;-142.13;31.73
11712;BME280;5912;51.034;6.984;2023-02-28T08:48:03;56546.63;;;-142.13;31.63
11712;BME280;5912;51.034;6.984;2023-02-28T08:50:29;56580.69;;;-142.13;31.14
11712;BME280;5912;51.034;6.984;2023-02-28T08:52:54;56552.66;;;-142.13;31.09
11712;BME280;5912;51.034;6.984;2023-02-28T08:55:19;56544.63;;;-142.13;31.12
11712;BME280;5912;51.034;6.984;2023-02-28T08:57:45;56576.69;;;-142.13;30.63
11712;BME280;5912;51.034;6.984;2023-02-28T09:00:10;56578.69;;;-142.13;30.24
11712;BME280;5912;51.034;6.984;2023-02-28T09:02:39;56514.59;;;-142.13;29.45
11712;BME280;5912;51.034;6.984;2023-02-28T09:05:04;56532.63;;;-142.13;30.49
11712;BME280;5912;51.034;6.984;2023-02-28T09:07:30;56538.63;;;-142.13;29.54
11712;BME280;5912;51.034;6.984;2023-02-28T09:09:55;56572.69;;;-142.13;29.54
11712;BME280;5912;51.034;6.984;2023-02-28T09:12:25;56538.63;;;-142.13;29.17
11712;BME280;5912;51.034;6.984;2023-02-28T09:14:51;56532.63;;;-142.13;30.08
11712;BME280;5912;51.034;6.984;2023-02-28T09:17:16;56558.66;;;-142.13;29.61
11712;BME280;5912;51.034;6.984;2023-02-28T09:19:42;56504.56;;;-142.13;29.90
11712;BME280;5912;51.034;6.984;2023-02-28T09:22:09;56548.63;;;-142.13;29.85
11712;BME280;5912;51.034;6.984;2023-02-28T09:24:38;56524.59;;;-142.13;29.43
11712;BME280;5912;51.034;6.984;2023-02-28T09:27:04;56508.56;;;-142.13;29.83
11712;BME280;5912;51.034;6.984;2023-02-28T09:29:30;56500.56;;;-142.13;29.22
11712;BME280;5912;51.034;6.984;2023-02-28T09:31:56;56540.63;;;-142.13;29.26
11712;BME280;5912;51.034;6.984;2023-02-28T09:34:24;56540.63;;;-142.13;29.65
11712;BME280;5912;51.034;6.984;2023-02-28T09:36:50;56504.56;;;-142.13;28.95
11712;BME280;5912;51.034;6.984;2023-02-28T09:39:20;56474.53;;;-142.13;28.70
11712;BME280;5912;51.034;6.984;2023-02-28T09:41:49;56502.56;;;-142.13;28.26
11712;BME280;5912;51.034;6.984;2023-02-28T09:47:00;56514.59;;;-142.13;28.63
11712;BME280;5912;51.034;6.984;2023-02-28T09:49:36;56496.56;;;-142.13;28.40
11712;BME280;5912;51.034;6.984;2023-02-28T09:52:06;56448.47;;;-142.13;28.13
11712;BME280;5912;51.034;6.984;2023-02-28T09:54:34;56464.50;;;-142.13;28.19
11712;BME280;5912;51.034;6.984;2023-02-28T09:57:17;56458.50;;;-142.13;28.67
11712;BME280;5912;51.034;6.984;2023-02-28T10:05:19;56448.47;;;-142.13;27.71
11712;BME280;5912;51.034;6.984;2023-02-28T10:08:05;56436.47;;;-142.13;26.55
11712;BME280;5912;51.034;6.984;2023-02-28T10:10:49;56396.41;;;-142.13;26.60
11712;BME280;5912;51.034;6.984;2023-02-28T10:16:09;56384.38;;;-142.13;25.84
11712;BME280;5912;51.034;6.984;2023-02-28T10:19:19;56418.44;;;-142.13;26.62
11712;BME280;5912;51.034;6.984;2023-02-28T10:21:57;56392.38;;;-142.13;25.90
11712;BME280;5912;51.034;6.984;2023-02-28T10:24:32;56400.41;;;-142.13;25.90
11712;BME280;5912;51.034;6.984;2023-02-28T10:27:02;56438.47;;;-142.13;25.29
11712;BME280;5912;51.034;6.984;2023-02-28T10:29:31;56398.41;;;-142.13;25.37
11712;BME280;5912;51.034;6.984;2023-02-28T10:32:01;56432.44;;;-142.13;25.66
11712;BME280;5912;51.034;6.984;2023-02-28T10:34:27;56430.44;;;-142.13;25.48
11712;BME280;5912;51.034;6.984;2023-02-28T10:36:53;56398.41;;;-142.13;25.45
11712;BME280;5912;51.034;6.984;2023-02-28T10:39:39;56396.41;;;-142.13;25.14
11712;BME280;5912;51.034;6.984;2023-02-28T10:42:05;56428.44;;;-142.13;25.04
11712;BME280;5912;51.034;6.984;2023-02-28T10:44:43;56386.38;;;-142.13;25.46
11712;BME280;5912;51.034;6.984;2023-02-28T10:47:14;56374.34;;;-142.13;25.64
11712;BME280;5912;51.034;6.984;2023-02-28T10:49:47;56362.34;;;-142.13;25.06
11712;BME280;5912;51.034;6.984;2023-02-28T10:52:12;56396.41;;;-142.13;24.96
11712;BME280;5912;51.034;6.984;2023-02-28T10:54:38;56428.44;;;-142.13;25.53
11712;BME280;5912;51.034;6.984;2023-02-28T10:57:23;56440.47;;;-142.13;26.51
11712;BME280;5912;51.034;6.984;2023-02-28T11:00:16;56446.47;;;-142.13;26.66
11712;BME280;5912;51.034;6.984;2023-02-28T11:02:42;56418.44;;;-142.13;26.36
11712;BME280;5912;51.034;6.984;2023-02-28T11:08:06;56378.38;;;-142.13;26.02
11712;BME280;5912;51.034;6.984;2023-02-28T11:10:36;56354.31;;;-142.13;25.92
11712;BME280;5912;51.034;6.984;2023-02-28T11:13:02;56376.34;;;-142.13;25.80
11712;BME280;5912;51.034;6.984;2023-02-28T11:15:30;56320.28;;;-142.13;24.79
11712;BME280;5912;51.034;6.984;2023-02-28T11:18:00;56320.28;;;-142.13;24.83
11712;BME280;5912;51.034;6.984;2023-02-28T11:20:28;56308.25;;;-142.13;25.23
11712;BME280;5912;51.034;6.984;2023-02-28T11:22:56;56316.25;;;-142.13;23.80
11712;BME280;5912;51.034;6.984;2023-02-28T11:25:25;56326.28;;;-142.13;23.91
11712;BME280;5912;51.034;6.984;2023-02-28T11:27:54;56336.28;;;-142.13;23.81
11712;BME280;5912;51.034;6.984;2023-02-28T11:32:56;56362.34;;;-142.13;24.55
11712;BME280;5912;51.034;6.984;2023-02-28T11:35:33;56412.41;;;-142.13;25.47
11712;BME280;5912;51.034;6.984;2023-02-28T11:38:01;56388.38;;;-142.13;26.29
11712;BME280;5912;51.034;6.984;2023-02-28T11:40:39;56428.44;;;-142.13;26.31
11712;BME280;5912;51.034;6.984;2023-02-28T11:46:00;56414.41;;;-142.13;26.13
11712;BME280;5912;51.034;6.984;2023-02-28T11:48:56;56400.41;;;-142.13;25.72
11712;BME280;5912;51.034;6.984;2023-02-28T11:54:42;56344.31;;;-142.13;24.79
11712;BME280;5912;51.034;6.984;2023-02-28T12:00:15;56344.31;;;-142.13;24.71
11712;BME280;5912;51.034;6.984;2023-02-28T12:05:50;56414.41;;;-142.13;24.34
11712;BME280;5912;51.034;6.984;2023-02-28T12:11:06;56604.72;;;-142.13;25.28
11712;BME280;5912;51.034;6.984;2023-02-28T12:16:29;56408.41;;;-142.13;25.46
11712;BME280;5912;51.034;6.984;2023-02-28T12:25:28;56460.50;;;-142.13;26.70
11712;BME280;5912;51.034;6.984;2023-02-28T12:27:37;56422.44;;;-142.13;27.28
11712;BME280;5912;51.034;6.984;2023-02-28T12:30:24;56464.50;;;-142.13;27.58
11712;BME280;5912;51.034;6.984;2023-02-28T12:33:06;56504.56;;;-142.13;27.78
11712;BME280;5912;51.034;6.984;2023-02-28T12:38:14;56480.53;;;-142.13;29.08
11712;BME280;5912;51.034;6.984;2023-02-28T12:43:16;56510.56;;;-142.13;29.10
11712;BME280;5912;51.034;6.984;2023-02-28T12:48:15;56516.59;;;-142.13;29.42
11712;BME280;5912;51.034;6.984;2023-02-28T12:50:45;56536.63;;;-142.13;29.27
11712;BME280;5912;51.034;6.984;2023-02-28T12:53:35;56516.59;;;-142.13;29.77
11712;BME280;5912;51.034;6.984;2023-02-28T12:58:59;56532.63;;;-142.13;30.06
11712;BME280;5912;51.034;6.984;2023-02-28T13:09:31;56532.63;;;-142.13;29.17
11712;BME280;5912;51.034;6.984;2023-02-28T13:11:57;56532.63;;;-142.13;29.85
11712;BME280;5912;51.034;6.984;2023-02-28T13:14:35;56508.56;;;-142.13;29.75
11712;BME280;5912;51.034;6.984;2023-02-28T13:19:56;56524.59;;;-142.13;29.78
11712;BME280;5912;51.034;6.984;2023-02-28T13:24:51;56510.56;;;-142.13;29.79
11712;BME280;5912;51.034;6.984;2023-02-28T13:27:21;56528.59;;;-142.13;29.46
11712;BME280;5912;51.034;6.984;2023-02-28T13:29:50;56524.59;;;-142.13;29.09
11712;BME280;5912;51.034;6.984;2023-02-28T13:47:43;56342.31;;;-142.13;24.93
11712;BME280;5912;51.034;6.984;2023-02-28T13:50:36;56300.25;;;-142.13;23.42
11712;BME280;5912;51.034;6.984;2023-02-28T13:55:53;56266.19;;;-142.13;22.84
11712;BME280;5912;51.034;6.984;2023-02-28T14:04:38;56278.19;;;-142.13;23.15
11712;BME280;5912;51.034;6.984;2023-02-28T14:07:16;56272.19;;;-142.13;23.43
11712;BME280;5912;51.034;6.984;2023-02-28T14:09:49;56314.25;;;-142.13;23.32
11712;BME280;5912;51.034;6.984;2023-02-28T14:12:52;56300.25;;;-142.13;23.38
11712;BME280;5912;51.034;6.984;2023-02-28T14:17:56;56254.16;;;-142.13;23.24
11712;BME280;5912;51.034;6.984;2023-02-28T14:20:29;56240.16;;;-142.13;23.05
11712;BME280;5912;51.034;6.984;2023-02-28T14:23:04;56244.16;;;-142.13;22.88
11712;BME280;5912;51.034;6.984;2023-02-28T14:25:47;56250.16;;;-142.13;22.63
11712;BME280;5912;51.034;6.984;2023-02-28T14:31:11;56256.16;;;-142.13;22.93
11712;BME280;5912;51.034;6.984;2023-02-28T14:36:43;56248.16;;;-142.13;22.61
11712;BME280;5912;51.034;6.984;2023-02-28T14:39:22;56272.19;;;-142.13;22.81
11712;BME280;5912;51.034;6.984;2023-02-28T14:41:48;56272.19;;;-142.13;23.07
11712;BME280;5912;51.034;6.984;2023-02-28T14:44:23;56284.22;;;-142.13;23.28
11712;BME280;5912;51.034;6.984;2023-02-28T14:46:55;56292.22;;;-142.13;23.14
11712;BME280;5912;51.034;6.984;2023-02-28T14:49:30;56288.22;;;-142.13;23.24
11712;BME280;5912;51.034;6.984;2023-02-28T14:54:35;56316.25;;;-142.13;23.68
11712;BME280;5912;51.034;6.984;2023-02-28T14:57:02;56306.25;;;-142.13;23.84
11712;BME280;5912;51.034;6.984;2023-02-28T14:59:33;56356.31;;;-142.13;23.84
11712;BME280;5912;51.034;6.984;2023-02-28T15:02:18;56348.31;;;-142.13;24.26
11712;BME280;5912;51.034;6.984;2023-02-28T15:04:53;56358.34;;;-142.13;24.94
11712;BME280;5912;51.034;6.984;2023-02-28T15:07:19;56416.44;;;-142.13;25.58
11712;BME280;5912;51.034;6.984;2023-02-28T15:09:44;56452.47;;;-142.13;26.26
11712;BME280;5912;51.034;6.984;2023-02-28T15:12:14;56448.47;;;-142.13;27.29
11712;BME280;5912;51.034;6.984;2023-02-28T15:14:42;56494.56;;;-142.13;27.68
11712;BME280;5912;51.034;6.984;2023-02-28T15:17:19;56474.53;;;-142.13;27.91